createdAt,value
2022-10-23T06:32:29.531Z,66.39
2022-10-23T06:34:59.393Z,66.46
2022-10-23T06:37:27.251Z,66.27
2022-10-23T06:39:55.472Z,66.15
2022-10-23T06:42:23.192Z,66.41
2022-10-23T06:44:51.058Z,66.25
2022-10-23T06:47:19.262Z,66.02
2022-10-23T06:49:47.179Z,66.13
2022-10-23T06:52:41.658Z,66.23
2022-10-23T06:55:05.019Z,66.24
2022-10-23T06:57:33.198Z,66.27
2022-10-23T07:00:00.976Z,66.15
2022-10-23T07:02:28.800Z,65.98
2022-10-23T07:04:57.062Z,66.03
2022-10-23T07:07:26.363Z,65.80
2022-10-23T07:09:54.303Z,65.96
2022-10-23T07:12:22.667Z,65.50
2022-10-23T07:14:50.451Z,65.81
2022-10-23T07:17:18.538Z,65.56
2022-10-23T07:19:48.503Z,65.80
2022-10-23T07:22:16.396Z,65.90
2022-10-23T07:24:46.352Z,65.41
2022-10-23T07:27:14.805Z,65.49
2022-10-23T07:29:45.104Z,65.27
2022-10-23T07:32:12.966Z,65.49
2022-10-23T07:34:41.234Z,65.11
2022-10-23T07:37:09.175Z,65.16
2022-10-23T07:39:37.027Z,65.09
2022-10-23T07:42:06.979Z,65.17
2022-10-23T07:44:34.782Z,65.13
2022-10-23T07:47:02.677Z,64.81
2022-10-23T07:49:30.783Z,64.88
2022-10-23T07:51:58.911Z,64.96
2022-10-23T07:54:26.847Z,64.98
2022-10-23T07:56:55.298Z,64.44
2022-10-23T07:59:24.623Z,64.74
2022-10-23T08:01:55.797Z,64.87
2022-10-23T08:04:24.969Z,64.48
2022-10-23T08:06:53.508Z,64.54
2022-10-23T08:09:21.322Z,64.44
2022-10-23T08:11:49.538Z,64.47
2022-10-23T08:14:17.760Z,64.51
2022-10-23T08:16:47.027Z,64.24
2022-10-23T08:19:15.430Z,64.51
2022-10-23T08:21:43.307Z,64.50
2022-10-23T08:24:13.885Z,64.41
2022-10-23T08:26:41.870Z,64.23
2022-10-23T08:29:09.767Z,64.50
2022-10-23T08:31:38.169Z,64.56
2022-10-23T08:34:07.445Z,64.46
2022-10-23T08:36:36.437Z,64.44
2022-10-23T08:39:05.038Z,64.47
2022-10-23T08:41:36.294Z,64.41
2022-10-23T08:44:11.258Z,64.48
2022-10-23T08:46:43.492Z,64.30
2022-10-23T08:49:26.138Z,64.05
2022-10-23T08:51:56.950Z,64.07
2022-10-23T08:54:29.640Z,64.36
2022-10-23T08:57:04.539Z,64.44
2022-10-23T08:59:40.821Z,64.38
2022-10-23T09:02:17.934Z,64.36
2022-10-23T09:04:50.100Z,64.49
2022-10-23T09:07:30.696Z,64.40
2022-10-23T09:10:09.036Z,64.45
2022-10-23T09:12:39.535Z,64.14
2022-10-23T09:15:24.080Z,64.59
2022-10-23T09:17:58.718Z,64.64
2022-10-23T09:20:30.730Z,64.70
2022-10-23T09:23:01.565Z,64.63
2022-10-23T09:25:32.328Z,64.48
2022-10-23T09:28:05.337Z,64.49
2022-10-23T09:30:36.800Z,64.52
2022-10-23T09:33:16.560Z,64.80
2022-10-23T09:35:57.181Z,64.51
2022-10-23T09:38:31.439Z,64.72
2022-10-23T09:41:01.782Z,64.63
2022-10-23T09:43:30.323Z,64.55
2022-10-23T09:46:00.379Z,64.74
2022-10-23T09:48:29.059Z,64.38
2022-10-23T09:51:00.843Z,64.52
2022-10-23T09:53:34.639Z,64.55
2022-10-23T09:56:05.021Z,64.48
2022-10-23T09:58:38.955Z,64.59
2022-10-23T10:01:07.217Z,64.28
2022-10-23T10:03:35.133Z,64.47
2022-10-23T10:06:06.128Z,64.55
2022-10-23T10:08:41.788Z,64.65
2022-10-23T10:11:17.424Z,64.28
2022-10-23T10:14:17.710Z,64.12
2022-10-23T10:16:53.165Z,63.92
2022-10-23T10:19:27.879Z,64.40
2022-10-23T10:22:09.405Z,64.06
2022-10-23T10:24:43.237Z,64.09
2022-10-23T10:27:22.614Z,63.84
2022-10-23T10:30:03.231Z,63.93
2022-10-23T10:32:39.474Z,63.69
2022-10-23T10:35:34.934Z,63.87
2022-10-23T10:38:32.327Z,63.75
2022-10-23T10:41:29.607Z,63.51
2022-10-23T10:44:09.881Z,63.30
2022-10-23T10:46:45.228Z,63.48
2022-10-23T10:49:17.894Z,63.65
2022-10-23T10:51:54.708Z,63.27
2022-10-23T10:54:37.515Z,63.49
2022-10-23T10:57:12.331Z,62.79
2022-10-23T10:59:44.290Z,63.29
2022-10-23T11:02:26.924Z,63.01
2022-10-23T11:05:01.973Z,62.85
2022-10-23T11:07:36.645Z,62.97
2022-10-23T11:10:16.861Z,63.08
2022-10-23T11:12:46.979Z,62.39
2022-10-23T11:15:18.089Z,62.89
2022-10-23T11:17:50.219Z,62.63
2022-10-23T11:20:29.749Z,62.59
2022-10-23T11:23:07.892Z,62.67
2022-10-23T11:25:58.605Z,62.65
2022-10-23T11:28:42.477Z,62.72
2022-10-23T11:31:22.278Z,62.37
2022-10-23T11:34:18.740Z,62.25
2022-10-23T11:36:50.594Z,62.42
2022-10-23T11:39:27.162Z,62.21
2022-10-23T11:41:58.864Z,61.95
2022-10-23T11:44:42.945Z,61.64
2022-10-23T11:47:35.141Z,61.83
2022-10-23T11:50:28.538Z,62.07
2022-10-23T11:53:13.672Z,61.56
2022-10-23T11:56:02.523Z,61.53
2022-10-23T11:58:43.299Z,61.48
2022-10-23T12:01:26.475Z,61.40
2022-10-23T12:04:03.434Z,61.28
2022-10-23T12:06:33.747Z,60.87
2022-10-23T12:09:06.677Z,60.75
2022-10-23T12:11:45.252Z,61.03
2022-10-23T12:14:34.023Z,61.18
2022-10-23T12:17:02.668Z,60.53
2022-10-23T12:19:39.211Z,60.32
2022-10-23T12:22:11.872Z,60.26
2022-10-23T12:24:56.751Z,60.33
2022-10-23T12:27:33.354Z,60.14
2022-10-23T12:30:21.539Z,60.58
2022-10-23T12:33:12.653Z,60.07
2022-10-23T12:36:26.920Z,60.58
2022-10-23T12:38:58.539Z,60.21
2022-10-23T12:41:28.114Z,59.57
2022-10-23T12:43:59.377Z,59.70
2022-10-23T12:46:34.410Z,59.30
2022-10-23T12:49:04.503Z,59.96
2022-10-23T12:51:35.181Z,59.39
2022-10-23T12:54:04.329Z,59.47
2022-10-23T12:56:37.526Z,59.57
2022-10-23T12:59:06.526Z,59.49
2022-10-23T13:01:37.688Z,59.02
2022-10-23T13:04:15.125Z,59.30
2022-10-23T13:06:43.832Z,59.40
2022-10-23T13:09:23.897Z,59.67
2022-10-23T13:11:53.235Z,59.00
2022-10-23T13:14:34.785Z,59.19
2022-10-23T13:17:09.401Z,58.51
2022-10-23T13:19:38.103Z,58.97
2022-10-23T13:22:16.552Z,58.88
2022-10-23T13:24:45.520Z,58.92
2022-10-23T13:27:26.755Z,59.04
2022-10-23T13:29:54.750Z,58.40
2022-10-23T13:32:26.798Z,58.66
2022-10-23T13:35:04.202Z,58.51
2022-10-23T13:37:38.415Z,58.74
2022-10-23T13:40:10.670Z,58.25
2022-10-23T13:42:38.532Z,58.09
2022-10-23T13:45:16.051Z,57.64
2022-10-23T13:47:45.605Z,58.06
2022-10-23T13:50:13.855Z,57.75
2022-10-23T13:52:42.285Z,57.91
2022-10-23T13:55:20.704Z,57.76
2022-10-23T13:57:49.077Z,57.50
2022-10-23T14:00:18.028Z,57.48
2022-10-23T14:02:47.254Z,57.58
2022-10-23T14:05:15.561Z,57.67
2022-10-23T14:07:43.706Z,57.68
2022-10-23T14:10:11.907Z,58.08
2022-10-23T14:12:42.060Z,57.62
2022-10-23T14:15:12.095Z,57.85
2022-10-23T14:17:40.244Z,57.61
2022-10-23T14:20:11.274Z,57.53
2022-10-23T14:22:39.197Z,57.71
2022-10-23T14:25:10.270Z,57.66
2022-10-23T14:27:38.240Z,57.74
2022-10-23T14:30:07.422Z,57.69
2022-10-23T14:32:35.448Z,57.71
2022-10-23T14:35:04.080Z,57.77
2022-10-23T14:37:34.093Z,57.75
2022-10-23T14:40:02.197Z,57.76
2022-10-23T14:42:34.362Z,57.96
2022-10-23T14:45:02.800Z,57.84
2022-10-23T14:47:31.237Z,57.86
2022-10-23T14:49:59.233Z,57.83
2022-10-23T14:52:27.185Z,58.02
2022-10-23T14:54:56.332Z,58.09
2022-10-23T14:57:24.345Z,57.90
2022-10-23T14:59:52.159Z,58.05
2022-10-23T15:02:19.936Z,58.24
2022-10-23T15:04:47.944Z,58.21
2022-10-23T15:07:15.780Z,58.12
2022-10-23T15:09:43.558Z,58.41
2022-10-23T15:12:13.154Z,58.51
2022-10-23T15:14:40.983Z,58.48
2022-10-23T15:17:14.553Z,58.25
2022-10-23T15:19:43.696Z,58.50
2022-10-23T15:22:11.888Z,58.54
2022-10-23T15:24:39.724Z,58.39
2022-10-23T15:27:07.577Z,58.82
2022-10-23T15:29:37.503Z,58.62
2022-10-23T15:32:07.696Z,58.76
2022-10-23T15:34:37.684Z,58.73
2022-10-23T15:37:05.693Z,58.75
2022-10-23T15:39:35.535Z,58.17
2022-10-23T15:42:05.716Z,58.51
2022-10-23T15:44:35.093Z,58.68
2022-10-23T15:47:04.785Z,58.72
2022-10-23T15:49:33.778Z,58.33
2022-10-23T15:52:02.362Z,58.51
2022-10-23T15:54:32.710Z,58.57
2022-10-23T15:57:01.805Z,58.16
2022-10-23T15:59:31.435Z,58.37
2022-10-23T16:01:59.823Z,58.51
2022-10-23T16:04:30.248Z,58.79
2022-10-23T16:06:58.237Z,59.40
2022-10-23T16:09:26.223Z,59.57
2022-10-23T16:11:55.021Z,59.47
2022-10-23T16:14:22.835Z,59.42
2022-10-23T16:16:50.780Z,59.41
2022-10-23T16:19:19.359Z,59.61
2022-10-23T16:21:48.656Z,59.64
2022-10-23T16:24:16.478Z,59.91
2022-10-23T16:26:46.009Z,59.89
2022-10-23T16:29:13.986Z,59.76
2022-10-23T16:31:42.236Z,59.89
2022-10-23T16:34:12.715Z,59.74
2022-10-23T16:36:42.944Z,59.88
2022-10-23T18:08:30.975Z,57.64
2022-10-23T18:11:01.076Z,57.77
2022-10-23T18:13:35.616Z,57.67
2022-10-23T18:16:11.517Z,57.89
2022-10-23T18:18:40.556Z,58.85
